sensor_id;sensor_type;location;lat;lon;timestamp;temperature;humidity
2387;DHT22;49473;50.772;8.768;2023-07-22T00:00:34;10.70;99.90
2387;DHT22;49473;50.772;8.768;2023-07-22T00:03:01;10.70;99.90
2387;DHT22;49473;50.772;8.768;2023-07-22T00:05:28;10.60;99.90
2387;DHT22;49473;50.772;8.768;2023-07-22T00:07:55;10.60;99.90
2387;DHT22;49473;50.772;8.768;2023-07-22T00:10:23;10.50;99.90
2387;DHT22;49473;50.772;8.768;2023-07-22T00:12:49;10.50;99.90
2387;DHT22;49473;50.772;8.768;2023-07-22T00:15:16;10.50;99.90
2387;DHT22;49473;50.772;8.768;2023-07-22T00:17:43;10.50;99.90
2387;DHT22;49473;50.772;8.768;2023-07-22T00:20:10;10.40;99.90
2387;DHT22;49473;50.772;8.768;2023-07-22T00:22:37;10.40;99.90
2387;DHT22;49473;50.772;8.768;2023-07-22T00:25:06;10.40;99.90
2387;DHT22;49473;50.772;8.768;2023-07-22T00:27:36;10.30;99.90
2387;DHT22;49473;50.772;8.768;2023-07-22T00:30:04;10.30;99.90
2387;DHT22;49473;50.772;8.768;2023-07-22T00:32:31;10.20;99.90
2387;DHT22;49473;50.772;8.768;2023-07-22T00:34:58;10.20;99.90
2387;DHT22;49473;50.772;8.768;2023-07-22T00:37:25;10.20;99.90
2387;DHT22;49473;50.772;8.768;2023-07-22T00:39:52;10.10;99.90
2387;DHT22;49473;50.772;8.768;2023-07-22T00:42:19;10.10;99.90
2387;DHT22;49473;50.772;8.768;2023-07-22T00:44:48;10.00;99.90
2387;DHT22;49473;50.772;8.768;2023-07-22T00:47:15;10.00;99.90
2387;DHT22;49473;50.772;8.768;2023-07-22T00:49:43;10.00;99.90
2387;DHT22;49473;50.772;8.768;2023-07-22T00:52:10;10.00;99.90
2387;DHT22;49473;50.772;8.768;2023-07-22T00:54:37;10.00;99.90
2387;DHT22;49473;50.772;8.768;2023-07-22T00:57:04;9.90;99.90
2387;DHT22;49473;50.772;8.768;2023-07-22T00:59:31;9.90;99.90
2387;DHT22;49473;50.772;8.768;2023-07-22T01:01:59;9.90;99.90
2387;DHT22;49473;50.772;8.768;2023-07-22T01:04:26;9.80;99.90
2387;DHT22;49473;50.772;8.768;2023-07-22T01:06:54;9.80;99.90
2387;DHT22;49473;50.772;8.768;2023-07-22T01:09:22;9.80;99.90
2387;DHT22;49473;50.772;8.768;2023-07-22T01:11:48;9.80;99.90
2387;DHT22;49473;50.772;8.768;2023-07-22T01:14:15;9.80;99.90
2387;DHT22;49473;50.772;8.768;2023-07-22T01:16:42;9.80;99.90
2387;DHT22;49473;50.772;8.768;2023-07-22T01:19:11;9.70;99.90
2387;DHT22;49473;50.772;8.768;2023-07-22T01:21:41;9.70;99.90
2387;DHT22;49473;50.772;8.768;2023-07-22T01:24:10;9.60;99.90
2387;DHT22;49473;50.772;8.768;2023-07-22T01:26:37;9.60;99.90
2387;DHT22;49473;50.772;8.768;2023-07-22T01:29:04;9.50;99.90
2387;DHT22;49473;50.772;8.768;2023-07-22T01:31:33;9.50;99.90
2387;DHT22;49473;50.772;8.768;2023-07-22T01:34:00;9.40;99.90
2387;DHT22;49473;50.772;8.768;2023-07-22T01:36:26;9.40;99.90
2387;DHT22;49473;50.772;8.768;2023-07-22T01:38:53;9.40;99.90
2387;DHT22;49473;50.772;8.768;2023-07-22T01:41:21;9.40;99.90
2387;DHT22;49473;50.772;8.768;2023-07-22T01:43:48;9.40;99.90
2387;DHT22;49473;50.772;8.768;2023-07-22T01:46:15;9.30;99.90
2387;DHT22;49473;50.772;8.768;2023-07-22T01:48:42;9.30;99.90
2387;DHT22;49473;50.772;8.768;2023-07-22T01:51:09;9.30;99.90
2387;DHT22;49473;50.772;8.768;2023-07-22T01:53:35;9.40;99.90
2387;DHT22;49473;50.772;8.768;2023-07-22T01:56:02;9.40;99.90
2387;DHT22;49473;50.772;8.768;2023-07-22T01:58:32;9.40;99.90
2387;DHT22;49473;50.772;8.768;2023-07-22T02:00:58;9.30;99.90
2387;DHT22;49473;50.772;8.768;2023-07-22T02:03:25;9.30;99.90
2387;DHT22;49473;50.772;8.768;2023-07-22T02:05:52;9.30;99.90
2387;DHT22;49473;50.772;8.768;2023-07-22T02:08:19;9.20;99.90
2387;DHT22;49473;50.772;8.768;2023-07-22T02:10:46;9.30;99.90
2387;DHT22;49473;50.772;8.768;2023-07-22T02:13:13;9.30;99.90
2387;DHT22;49473;50.772;8.768;2023-07-22T02:15:42;9.20;99.90
2387;DHT22;49473;50.772;8.768;2023-07-22T02:18:09;9.20;99.90
2387;DHT22;49473;50.772;8.768;2023-07-22T02:20:35;9.30;99.90
2387;DHT22;49473;50.772;8.768;2023-07-22T02:23:02;9.30;99.90
2387;DHT22;49473;50.772;8.768;2023-07-22T02:25:29;9.30;99.90
2387;DHT22;49473;50.772;8.768;2023-07-22T02:27:56;9.30;99.90
2387;DHT22;49473;50.772;8.768;2023-07-22T02:30:23;9.30;99.90
2387;DHT22;49473;50.772;8.768;2023-07-22T02:32:51;9.20;99.90
2387;DHT22;49473;50.772;8.768;2023-07-22T02:35:17;9.10;99.90
2387;DHT22;49473;50.772;8.768;2023-07-22T02:37:44;9.10;99.90
2387;DHT22;49473;50.772;8.768;2023-07-22T02:40:11;9.00;99.90
2387;DHT22;49473;50.772;8.768;2023-07-22T02:42:38;9.00;99.90
2387;DHT22;49473;50.772;8.768;2023-07-22T02:45:06;9.00;99.90
2387;DHT22;49473;50.772;8.768;2023-07-22T02:47:33;9.00;99.90
2387;DHT22;49473;50.772;8.768;2023-07-22T02:50:03;8.90;99.90
2387;DHT22;49473;50.772;8.768;2023-07-22T02:52:30;8.90;99.90
2387;DHT22;49473;50.772;8.768;2023-07-22T02:55:08;8.80;99.90
2387;DHT22;49473;50.772;8.768;2023-07-22T02:57:36;8.80;99.90
2387;DHT22;49473;50.772;8.768;2023-07-22T03:00:04;8.80;99.90
2387;DHT22;49473;50.772;8.768;2023-07-22T03:02:33;8.80;99.90
2387;DHT22;49473;50.772;8.768;2023-07-22T03:05:02;8.80;99.90
2387;DHT22;49473;50.772;8.768;2023-07-22T03:07:33;8.70;99.90
2387;DHT22;49473;50.772;8.768;2023-07-22T03:10:00;8.70;99.90
2387;DHT22;49473;50.772;8.768;2023-07-22T03:12:26;8.80;99.90
2387;DHT22;49473;50.772;8.768;2023-07-22T03:14:54;8.80;99.90
2387;DHT22;49473;50.772;8.768;2023-07-22T03:17:20;8.90;99.90
2387;DHT22;49473;50.772;8.768;2023-07-22T03:19:47;8.90;99.90
2387;DHT22;49473;50.772;8.768;2023-07-22T03:22:16;8.90;99.90
2387;DHT22;49473;50.772;8.768;2023-07-22T03:24:43;8.90;99.90
2387;DHT22;49473;50.772;8.768;2023-07-22T03:27:10;8.90;99.90
2387;DHT22;49473;50.772;8.768;2023-07-22T03:29:37;8.80;99.90
2387;DHT22;49473;50.772;8.768;2023-07-22T03:32:05;8.80;99.90
2387;DHT22;49473;50.772;8.768;2023-07-22T03:34:32;8.80;99.90
2387;DHT22;49473;50.772;8.768;2023-07-22T03:36:59;8.80;99.90
2387;DHT22;49473;50.772;8.768;2023-07-22T03:39:27;8.70;99.90
2387;DHT22;49473;50.772;8.768;2023-07-22T03:41:53;8.70;99.90
2387;DHT22;49473;50.772;8.768;2023-07-22T03:44:20;8.70;99.90
2387;DHT22;49473;50.772;8.768;2023-07-22T03:46:48;8.70;99.90
2387;DHT22;49473;50.772;8.768;2023-07-22T03:49:14;8.70;99.90
2387;DHT22;49473;50.772;8.768;2023-07-22T03:51:41;8.70;99.90
2387;DHT22;49473;50.772;8.768;2023-07-22T03:54:08;8.60;99.90
2387;DHT22;49473;50.772;8.768;2023-07-22T03:56:37;8.60;99.90
2387;DHT22;49473;50.772;8.768;2023-07-22T03:59:04;8.60;99.90
2387;DHT22;49473;50.772;8.768;2023-07-22T04:01:31;8.50;99.90
2387;DHT22;49473;50.772;8.768;2023-07-22T04:03:58;8.50;99.90
2387;DHT22;49473;50.772;8.768;2023-07-22T04:06:24;8.60;99.90
2387;DHT22;49473;50.772;8.768;2023-07-22T04:08:51;8.60;99.90
2387;DHT22;49473;50.772;8.768;2023-07-22T04:11:18;8.60;99.90
2387;DHT22;49473;50.772;8.768;2023-07-22T04:13:47;8.60;99.90
2387;DHT22;49473;50.772;8.768;2023-07-22T04:16:14;8.60;99.90
2387;DHT22;49473;50.772;8.768;2023-07-22T04:18:41;8.60;99.90
2387;DHT22;49473;50.772;8.768;2023-07-22T04:21:07;8.60;99.90
2387;DHT22;49473;50.772;8.768;2023-07-22T04:23:34;8.60;99.90
2387;DHT22;49473;50.772;8.768;2023-07-22T04:26:02;8.60;99.90
2387;DHT22;49473;50.772;8.768;2023-07-22T04:28:32;8.60;99.90
2387;DHT22;49473;50.772;8.768;2023-07-22T04:31:01;8.60;99.90
2387;DHT22;49473;50.772;8.768;2023-07-22T04:33:28;8.50;99.90
2387;DHT22;49473;50.772;8.768;2023-07-22T04:35:57;8.60;99.90
2387;DHT22;49473;50.772;8.768;2023-07-22T04:38:24;8.70;99.90
2387;DHT22;49473;50.772;8.768;2023-07-22T04:40:51;8.70;99.90
2387;DHT22;49473;50.772;8.768;2023-07-22T04:43:18;8.80;99.90
2387;DHT22;49473;50.772;8.768;2023-07-22T04:45:45;8.90;99.90
2387;DHT22;49473;50.772;8.768;2023-07-22T04:48:15;9.10;99.90
2387;DHT22;49473;50.772;8.768;2023-07-22T04:50:42;9.30;99.90
2387;DHT22;49473;50.772;8.768;2023-07-22T04:53:10;9.40;99.90
2387;DHT22;49473;50.772;8.768;2023-07-22T04:55:38;9.50;99.90
2387;DHT22;49473;50.772;8.768;2023-07-22T04:58:05;9.50;99.90
2387;DHT22;49473;50.772;8.768;2023-07-22T05:00:32;9.60;99.90
2387;DHT22;49473;50.772;8.768;2023-07-22T05:02:59;9.80;99.90
2387;DHT22;49473;50.772;8.768;2023-07-22T05:05:27;10.00;99.90
2387;DHT22;49473;50.772;8.768;2023-07-22T05:07:54;10.20;99.90
2387;DHT22;49473;50.772;8.768;2023-07-22T05:10:22;10.40;99.90
2387;DHT22;49473;50.772;8.768;2023-07-22T05:12:49;10.60;99.90
2387;DHT22;49473;50.772;8.768;2023-07-22T05:15:16;10.80;99.90
2387;DHT22;49473;50.772;8.768;2023-07-22T05:17:43;11.00;99.90
2387;DHT22;49473;50.772;8.768;2023-07-22T05:20:10;11.10;99.90
2387;DHT22;49473;50.772;8.768;2023-07-22T05:22:39;11.30;99.90
2387;DHT22;49473;50.772;8.768;2023-07-22T05:25:08;11.60;99.90
2387;DHT22;49473;50.772;8.768;2023-07-22T05:27:35;11.80;99.90
2387;DHT22;49473;50.772;8.768;2023-07-22T05:30:03;12.00;99.90
2387;DHT22;49473;50.772;8.768;2023-07-22T05:32:30;12.30;99.90
2387;DHT22;49473;50.772;8.768;2023-07-22T05:34:56;12.70;99.90
2387;DHT22;49473;50.772;8.768;2023-07-22T05:37:23;13.10;99.90
2387;DHT22;49473;50.772;8.768;2023-07-22T05:39:51;13.50;99.90
2387;DHT22;49473;50.772;8.768;2023-07-22T05:42:18;13.70;99.90
2387;DHT22;49473;50.772;8.768;2023-07-22T05:44:45;14.00;99.90
2387;DHT22;49473;50.772;8.768;2023-07-22T05:47:12;13.90;99.90
2387;DHT22;49473;50.772;8.768;2023-07-22T05:49:39;13.80;99.90
2387;DHT22;49473;50.772;8.768;2023-07-22T05:52:06;13.60;99.90
2387;DHT22;49473;50.772;8.768;2023-07-22T05:54:33;13.30;99.90
2387;DHT22;49473;50.772;8.768;2023-07-22T05:57:01;13.20;99.90
2387;DHT22;49473;50.772;8.768;2023-07-22T05:59:29;13.20;99.90
2387;DHT22;49473;50.772;8.768;2023-07-22T06:01:56;13.00;99.90
2387;DHT22;49473;50.772;8.768;2023-07-22T06:04:23;13.10;99.90
2387;DHT22;49473;50.772;8.768;2023-07-22T06:06:50;13.20;99.90
2387;DHT22;49473;50.772;8.768;2023-07-22T06:09:17;13.40;99.90
2387;DHT22;49473;50.772;8.768;2023-07-22T06:11:44;13.80;99.90
2387;DHT22;49473;50.772;8.768;2023-07-22T06:14:12;14.00;99.90
2387;DHT22;49473;50.772;8.768;2023-07-22T06:16:39;14.10;99.90
2387;DHT22;49473;50.772;8.768;2023-07-22T06:19:05;14.30;99.90
2387;DHT22;49473;50.772;8.768;2023-07-22T06:21:32;14.30;99.90
2387;DHT22;49473;50.772;8.768;2023-07-22T06:23:59;14.40;99.90
2387;DHT22;49473;50.772;8.768;2023-07-22T06:26:26;14.50;99.90
2387;DHT22;49473;50.772;8.768;2023-07-22T06:28:53;14.90;99.90
2387;DHT22;49473;50.772;8.768;2023-07-22T06:31:21;15.30;99.90
2387;DHT22;49473;50.772;8.768;2023-07-22T06:33:48;15.90;99.90
2387;DHT22;49473;50.772;8.768;2023-07-22T06:36:14;16.60;99.90
2387;DHT22;49473;50.772;8.768;2023-07-22T06:38:42;17.10;99.90
2387;DHT22;49473;50.772;8.768;2023-07-22T06:41:09;17.60;99.90
2387;DHT22;49473;50.772;8.768;2023-07-22T06:43:35;18.00;99.90
2387;DHT22;49473;50.772;8.768;2023-07-22T06:46:02;18.40;99.90
2387;DHT22;49473;50.772;8.768;2023-07-22T06:48:30;18.60;99.90
2387;DHT22;49473;50.772;8.768;2023-07-22T06:50:57;18.90;99.90
2387;DHT22;49473;50.772;8.768;2023-07-22T06:53:24;19.30;99.90
2387;DHT22;49473;50.772;8.768;2023-07-22T06:55:51;19.70;99.90
2387;DHT22;49473;50.772;8.768;2023-07-22T06:58:20;19.80;99.90
2387;DHT22;49473;50.772;8.768;2023-07-22T07:00:47;20.30;99.90
2387;DHT22;49473;50.772;8.768;2023-07-22T07:03:15;20.80;99.90
2387;DHT22;49473;50.772;8.768;2023-07-22T07:05:43;21.30;99.90
2387;DHT22;49473;50.772;8.768;2023-07-22T07:08:09;21.80;99.90
2387;DHT22;49473;50.772;8.768;2023-07-22T07:10:38;22.20;99.90
2387;DHT22;49473;50.772;8.768;2023-07-22T07:13:05;22.70;99.90
2387;DHT22;49473;50.772;8.768;2023-07-22T07:15:32;22.70;99.90
2387;DHT22;49473;50.772;8.768;2023-07-22T07:17:59;22.90;99.90
2387;DHT22;49473;50.772;8.768;2023-07-22T07:20:25;23.20;99.90
2387;DHT22;49473;50.772;8.768;2023-07-22T07:22:53;23.40;99.90
2387;DHT22;49473;50.772;8.768;2023-07-22T07:25:20;23.70;99.90
2387;DHT22;49473;50.772;8.768;2023-07-22T07:27:47;23.30;99.90
2387;DHT22;49473;50.772;8.768;2023-07-22T07:30:14;23.30;99.90
2387;DHT22;49473;50.772;8.768;2023-07-22T07:32:41;24.10;99.90
2387;DHT22;49473;50.772;8.768;2023-07-22T07:35:08;24.70;99.90
2387;DHT22;49473;50.772;8.768;2023-07-22T07:37:35;25.20;99.90
2387;DHT22;49473;50.772;8.768;2023-07-22T07:40:04;25.70;99.90
2387;DHT22;49473;50.772;8.768;2023-07-22T07:42:31;26.00;99.90
2387;DHT22;49473;50.772;8.768;2023-07-22T07:44:58;26.20;99.90
2387;DHT22;49473;50.772;8.768;2023-07-22T07:47:25;26.30;99.90
2387;DHT22;49473;50.772;8.768;2023-07-22T07:49:51;26.30;99.90
2387;DHT22;49473;50.772;8.768;2023-07-22T07:52:18;26.60;99.90
2387;DHT22;49473;50.772;8.768;2023-07-22T07:54:45;26.80;99.90
2387;DHT22;49473;50.772;8.768;2023-07-22T07:57:13;27.40;99.90
2387;DHT22;49473;50.772;8.768;2023-07-22T07:59:40;28.10;99.90
2387;DHT22;49473;50.772;8.768;2023-07-22T08:02:06;28.00;98.60
2387;DHT22;49473;50.772;8.768;2023-07-22T08:04:35;27.90;96.60
2387;DHT22;49473;50.772;8.768;2023-07-22T08:07:03;28.00;97.30
2387;DHT22;49473;50.772;8.768;2023-07-22T08:09:30;28.80;96.20
2387;DHT22;49473;50.772;8.768;2023-07-22T08:11:57;29.70;96.30
2387;DHT22;49473;50.772;8.768;2023-07-22T08:14:25;29.70;94.00
2387;DHT22;49473;50.772;8.768;2023-07-22T08:16:51;29.80;92.30
2387;DHT22;49473;50.772;8.768;2023-07-22T08:19:18;29.40;92.30
2387;DHT22;49473;50.772;8.768;2023-07-22T08:21:45;29.50;92.10
2387;DHT22;49473;50.772;8.768;2023-07-22T08:24:12;29.60;92.30
2387;DHT22;49473;50.772;8.768;2023-07-22T08:26:38;29.70;91.00
2387;DHT22;49473;50.772;8.768;2023-07-22T08:29:05;29.20;89.20
2387;DHT22;49473;50.772;8.768;2023-07-22T08:31:33;29.30;91.90
2387;DHT22;49473;50.772;8.768;2023-07-22T08:34:01;30.00;90.50
2387;DHT22;49473;50.772;8.768;2023-07-22T08:36:28;30.70;87.50
2387;DHT22;49473;50.772;8.768;2023-07-22T08:38:55;30.20;85.10
2387;DHT22;49473;50.772;8.768;2023-07-22T08:41:21;30.20;84.90
2387;DHT22;49473;50.772;8.768;2023-07-22T08:43:51;30.20;80.50
2387;DHT22;49473;50.772;8.768;2023-07-22T08:46:19;30.00;86.00
2387;DHT22;49473;50.772;8.768;2023-07-22T08:48:49;30.50;79.10
2387;DHT22;49473;50.772;8.768;2023-07-22T08:51:19;30.50;81.60
2387;DHT22;49473;50.772;8.768;2023-07-22T08:53:47;30.30;81.10
2387;DHT22;49473;50.772;8.768;2023-07-22T08:56:15;30.00;84.80
2387;DHT22;49473;50.772;8.768;2023-07-22T08:58:42;30.10;83.10
2387;DHT22;49473;50.772;8.768;2023-07-22T09:01:10;30.50;80.60
2387;DHT22;49473;50.772;8.768;2023-07-22T09:03:39;29.80;74.90
2387;DHT22;49473;50.772;8.768;2023-07-22T09:06:08;29.30;83.10
2387;DHT22;49473;50.772;8.768;2023-07-22T09:08:35;29.00;77.80
2387;DHT22;49473;50.772;8.768;2023-07-22T09:11:04;29.70;80.90
2387;DHT22;49473;50.772;8.768;2023-07-22T09:13:31;31.00;81.90
2387;DHT22;49473;50.772;8.768;2023-07-22T09:15:59;31.70;79.00
2387;DHT22;49473;50.772;8.768;2023-07-22T09:18:26;31.30;75.30
2387;DHT22;49473;50.772;8.768;2023-07-22T09:20:53;31.60;73.90
2387;DHT22;49473;50.772;8.768;2023-07-22T09:23:33;31.70;74.10
2387;DHT22;49473;50.772;8.768;2023-07-22T09:26:08;31.70;71.00
2387;DHT22;49473;50.772;8.768;2023-07-22T09:28:48;31.70;69.50
2387;DHT22;49473;50.772;8.768;2023-07-22T09:31:14;32.60;69.70
2387;DHT22;49473;50.772;8.768;2023-07-22T09:33:41;32.90;67.70
2387;DHT22;49473;50.772;8.768;2023-07-22T09:36:10;32.50;69.90
2387;DHT22;49473;50.772;8.768;2023-07-22T09:38:38;32.40;65.70
2387;DHT22;49473;50.772;8.768;2023-07-22T09:41:05;32.60;65.60
2387;DHT22;49473;50.772;8.768;2023-07-22T09:43:36;33.00;65.20
2387;DHT22;49473;50.772;8.768;2023-07-22T09:46:09;32.10;66.50
2387;DHT22;49473;50.772;8.768;2023-07-22T09:48:43;31.80;65.10
2387;DHT22;49473;50.772;8.768;2023-07-22T09:51:14;30.80;64.40
2387;DHT22;49473;50.772;8.768;2023-07-22T09:53:47;30.90;65.30
2387;DHT22;49473;50.772;8.768;2023-07-22T09:56:14;31.50;66.20
2387;DHT22;49473;50.772;8.768;2023-07-22T09:58:40;31.50;67.00
2387;DHT22;49473;50.772;8.768;2023-07-22T10:01:11;31.70;67.70
2387;DHT22;49473;50.772;8.768;2023-07-22T10:03:39;32.60;64.20
2387;DHT22;49473;50.772;8.768;2023-07-22T10:06:08;33.30;63.50
2387;DHT22;49473;50.772;8.768;2023-07-22T10:08:35;33.00;60.50
2387;DHT22;49473;50.772;8.768;2023-07-22T10:11:05;33.70;61.50
2387;DHT22;49473;50.772;8.768;2023-07-22T10:13:35;33.60;57.70
2387;DHT22;49473;50.772;8.768;2023-07-22T10:16:03;33.20;58.20
2387;DHT22;49473;50.772;8.768;2023-07-22T10:18:31;33.70;57.60
2387;DHT22;49473;50.772;8.768;2023-07-22T10:20:58;34.00;59.70
2387;DHT22;49473;50.772;8.768;2023-07-22T10:23:26;34.20;57.90
2387;DHT22;49473;50.772;8.768;2023-07-22T10:25:54;33.90;55.30
2387;DHT22;49473;50.772;8.768;2023-07-22T10:28:22;33.90;56.70
2387;DHT22;49473;50.772;8.768;2023-07-22T10:30:49;32.90;55.00
2387;DHT22;49473;50.772;8.768;2023-07-22T10:33:16;32.30;57.50
2387;DHT22;49473;50.772;8.768;2023-07-22T10:35:46;32.40;57.10
2387;DHT22;49473;50.772;8.768;2023-07-22T10:38:27;31.80;57.20
2387;DHT22;49473;50.772;8.768;2023-07-22T10:40:55;31.10;59.70
2387;DHT22;49473;50.772;8.768;2023-07-22T10:43:26;30.40;58.80
2387;DHT22;49473;50.772;8.768;2023-07-22T10:45:55;29.80;60.70
2387;DHT22;49473;50.772;8.768;2023-07-22T10:48:26;29.20;62.00
2387;DHT22;49473;50.772;8.768;2023-07-22T10:50:54;28.60;65.60
2387;DHT22;49473;50.772;8.768;2023-07-22T10:53:29;27.90;65.80
2387;DHT22;49473;50.772;8.768;2023-07-22T10:56:06;27.60;66.50
2387;DHT22;49473;50.772;8.768;2023-07-22T10:58:58;27.70;68.10
2387;DHT22;49473;50.772;8.768;2023-07-22T11:01:35;28.40;64.40
2387;DHT22;49473;50.772;8.768;2023-07-22T11:04:13;28.50;64.70
2387;DHT22;49473;50.772;8.768;2023-07-22T11:06:53;28.60;67.10
2387;DHT22;49473;50.772;8.768;2023-07-22T11:09:41;28.90;67.70
2387;DHT22;49473;50.772;8.768;2023-07-22T11:12:13;29.50;67.20
2387;DHT22;49473;50.772;8.768;2023-07-22T11:14:46;28.90;65.70
2387;DHT22;49473;50.772;8.768;2023-07-22T11:17:14;29.20;65.10
2387;DHT22;49473;50.772;8.768;2023-07-22T11:19:41;29.00;64.60
2387;DHT22;49473;50.772;8.768;2023-07-22T11:22:07;28.50;65.00
2387;DHT22;49473;50.772;8.768;2023-07-22T11:24:35;29.30;67.00
2387;DHT22;49473;50.772;8.768;2023-07-22T11:27:03;30.10;63.80
2387;DHT22;49473;50.772;8.768;2023-07-22T11:29:31;31.10;64.10
2387;DHT22;49473;50.772;8.768;2023-07-22T11:31:59;31.60;59.00
2387;DHT22;49473;50.772;8.768;2023-07-22T11:34:26;31.80;60.50
2387;DHT22;49473;50.772;8.768;2023-07-22T11:36:53;31.00;59.30
2387;DHT22;49473;50.772;8.768;2023-07-22T11:39:22;29.40;63.30
2387;DHT22;49473;50.772;8.768;2023-07-22T11:41:49;28.70;66.30
2387;DHT22;49473;50.772;8.768;2023-07-22T11:44:18;29.20;65.90
2387;DHT22;49473;50.772;8.768;2023-07-22T11:46:57;28.60;62.60
2387;DHT22;49473;50.772;8.768;2023-07-22T11:49:27;28.00;64.10
2387;DHT22;49473;50.772;8.768;2023-07-22T11:51:55;27.50;63.70
2387;DHT22;49473;50.772;8.768;2023-07-22T11:54:23;28.00;65.20
2387;DHT22;49473;50.772;8.768;2023-07-22T11:56:50;28.30;62.90
2387;DHT22;49473;50.772;8.768;2023-07-22T11:59:17;28.90;62.40
2387;DHT22;49473;50.772;8.768;2023-07-22T12:01:45;29.10;62.40
2387;DHT22;49473;50.772;8.768;2023-07-22T12:04:12;28.90;62.10
2387;DHT22;49473;50.772;8.768;2023-07-22T12:06:41;28.50;62.70
2387;DHT22;49473;50.772;8.768;2023-07-22T12:09:09;28.30;62.70
2387;DHT22;49473;50.772;8.768;2023-07-22T12:11:36;28.50;62.90
2387;DHT22;49473;50.772;8.768;2023-07-22T12:14:10;29.80;62.70
2387;DHT22;49473;50.772;8.768;2023-07-22T12:16:38;31.00;60.90
2387;DHT22;49473;50.772;8.768;2023-07-22T12:19:06;32.30;61.10
2387;DHT22;49473;50.772;8.768;2023-07-22T12:21:33;32.90;57.00
2387;DHT22;49473;50.772;8.768;2023-07-22T12:24:01;33.10;58.00
2387;DHT22;49473;50.772;8.768;2023-07-22T12:26:29;32.90;56.40
2387;DHT22;49473;50.772;8.768;2023-07-22T12:28:56;33.10;56.50
2387;DHT22;49473;50.772;8.768;2023-07-22T12:31:23;32.80;55.60
2387;DHT22;49473;50.772;8.768;2023-07-22T12:33:50;32.70;55.50
2387;DHT22;49473;50.772;8.768;2023-07-22T12:36:16;32.20;55.20
2387;DHT22;49473;50.772;8.768;2023-07-22T12:38:43;31.90;56.80
2387;DHT22;49473;50.772;8.768;2023-07-22T12:41:11;31.90;57.60
2387;DHT22;49473;50.772;8.768;2023-07-22T12:43:38;32.50;57.30
2387;DHT22;49473;50.772;8.768;2023-07-22T12:46:04;32.60;55.10
2387;DHT22;49473;50.772;8.768;2023-07-22T12:48:31;32.60;55.00
2387;DHT22;49473;50.772;8.768;2023-07-22T12:50:58;32.30;56.00
2387;DHT22;49473;50.772;8.768;2023-07-22T12:53:26;30.70;55.90
2387;DHT22;49473;50.772;8.768;2023-07-22T12:55:53;29.90;58.90
2387;DHT22;49473;50.772;8.768;2023-07-22T12:58:21;30.10;58.40
2387;DHT22;49473;50.772;8.768;2023-07-22T13:00:48;31.00;58.00
2387;DHT22;49473;50.772;8.768;2023-07-22T13:03:14;31.70;58.30
2387;DHT22;49473;50.772;8.768;2023-07-22T13:05:41;31.80;56.80
2387;DHT22;49473;50.772;8.768;2023-07-22T13:08:08;32.20;56.90
2387;DHT22;49473;50.772;8.768;2023-07-22T13:10:34;32.10;55.50
2387;DHT22;49473;50.772;8.768;2023-07-22T13:13:04;32.10;57.30
2387;DHT22;49473;50.772;8.768;2023-07-22T13:15:32;31.90;55.90
2387;DHT22;49473;50.772;8.768;2023-07-22T13:17:59;31.80;55.90
2387;DHT22;49473;50.772;8.768;2023-07-22T13:20:26;31.30;57.40
2387;DHT22;49473;50.772;8.768;2023-07-22T13:22:52;31.00;57.20
2387;DHT22;49473;50.772;8.768;2023-07-22T13:25:20;30.20;57.60
2387;DHT22;49473;50.772;8.768;2023-07-22T13:27:46;30.00;57.20
2387;DHT22;49473;50.772;8.768;2023-07-22T13:30:13;29.80;58.70
2387;DHT22;49473;50.772;8.768;2023-07-22T13:32:41;29.30;58.60
2387;DHT22;49473;50.772;8.768;2023-07-22T13:35:08;29.10;59.70
2387;DHT22;49473;50.772;8.768;2023-07-22T13:37:36;29.00;61.50
2387;DHT22;49473;50.772;8.768;2023-07-22T13:40:03;28.60;61.40
2387;DHT22;49473;50.772;8.768;2023-07-22T13:42:35;28.50;61.80
2387;DHT22;49473;50.772;8.768;2023-07-22T13:45:02;28.70;59.40
2387;DHT22;49473;50.772;8.768;2023-07-22T13:47:29;28.60;59.90
2387;DHT22;49473;50.772;8.768;2023-07-22T13:49:57;28.50;62.90
2387;DHT22;49473;50.772;8.768;2023-07-22T13:52:23;28.20;61.80
2387;DHT22;49473;50.772;8.768;2023-07-22T13:54:50;28.30;60.70
2387;DHT22;49473;50.772;8.768;2023-07-22T13:57:17;28.60;60.70
2387;DHT22;49473;50.772;8.768;2023-07-22T13:59:44;28.80;61.50
2387;DHT22;49473;50.772;8.768;2023-07-22T14:02:10;28.50;60.90
2387;DHT22;49473;50.772;8.768;2023-07-22T14:04:37;28.20;61.90
2387;DHT22;49473;50.772;8.768;2023-07-22T14:07:05;27.80;61.40
2387;DHT22;49473;50.772;8.768;2023-07-22T14:09:32;27.30;62.40
2387;DHT22;49473;50.772;8.768;2023-07-22T14:11:59;27.10;61.30
2387;DHT22;49473;50.772;8.768;2023-07-22T14:14:26;26.80;62.90
2387;DHT22;49473;50.772;8.768;2023-07-22T14:16:54;26.90;63.10
2387;DHT22;49473;50.772;8.768;2023-07-22T14:19:21;27.10;63.20
2387;DHT22;49473;50.772;8.768;2023-07-22T14:21:48;27.10;62.70
2387;DHT22;49473;50.772;8.768;2023-07-22T14:24:16;27.00;63.80
2387;DHT22;49473;50.772;8.768;2023-07-22T14:26:43;27.30;64.70
2387;DHT22;49473;50.772;8.768;2023-07-22T14:29:09;27.30;64.40
2387;DHT22;49473;50.772;8.768;2023-07-22T14:31:36;27.10;62.60
2387;DHT22;49473;50.772;8.768;2023-07-22T14:34:03;26.90;63.20
2387;DHT22;49473;50.772;8.768;2023-07-22T14:36:29;26.80;61.50
2387;DHT22;49473;50.772;8.768;2023-07-22T14:38:56;26.70;66.00
2387;DHT22;49473;50.772;8.768;2023-07-22T14:41:25;26.60;64.30
2387;DHT22;49473;50.772;8.768;2023-07-22T14:43:51;26.80;65.70
2387;DHT22;49473;50.772;8.768;2023-07-22T14:46:18;27.10;65.80
2387;DHT22;49473;50.772;8.768;2023-07-22T14:48:45;27.00;65.20
2387;DHT22;49473;50.772;8.768;2023-07-22T14:51:12;27.00;64.50
2387;DHT22;49473;50.772;8.768;2023-07-22T14:53:39;26.60;62.50
2387;DHT22;49473;50.772;8.768;2023-07-22T14:56:06;26.40;65.90
2387;DHT22;49473;50.772;8.768;2023-07-22T14:58:34;26.30;65.20
2387;DHT22;49473;50.772;8.768;2023-07-22T15:01:00;26.30;64.30
2387;DHT22;49473;50.772;8.768;2023-07-22T15:03:28;26.20;64.70
2387;DHT22;49473;50.772;8.768;2023-07-22T15:05:54;26.30;64.40
2387;DHT22;49473;50.772;8.768;2023-07-22T15:08:21;26.30;66.60
2387;DHT22;49473;50.772;8.768;2023-07-22T15:10:48;26.10;66.00
2387;DHT22;49473;50.772;8.768;2023-07-22T15:13:14;26.00;65.20
2387;DHT22;49473;50.772;8.768;2023-07-22T15:15:42;26.00;66.90
2387;DHT22;49473;50.772;8.768;2023-07-22T15:18:09;26.10;66.30
2387;DHT22;49473;50.772;8.768;2023-07-22T15:20:36;26.10;65.70
2387;DHT22;49473;50.772;8.768;2023-07-22T15:23:03;26.10;65.80
2387;DHT22;49473;50.772;8.768;2023-07-22T15:25:30;26.10;67.50
2387;DHT22;49473;50.772;8.768;2023-07-22T15:27:57;26.00;67.90
2387;DHT22;49473;50.772;8.768;2023-07-22T15:30:23;25.80;66.60
2387;DHT22;49473;50.772;8.768;2023-07-22T15:32:51;25.80;66.50
2387;DHT22;49473;50.772;8.768;2023-07-22T15:35:18;25.80;68.70
2387;DHT22;49473;50.772;8.768;2023-07-22T15:37:45;25.80;66.60
2387;DHT22;49473;50.772;8.768;2023-07-22T15:40:12;25.90;67.40
2387;DHT22;49473;50.772;8.768;2023-07-22T15:42:39;25.90;69.10
2387;DHT22;49473;50.772;8.768;2023-07-22T15:45:07;26.00;67.60
2387;DHT22;49473;50.772;8.768;2023-07-22T15:47:34;25.90;66.60
2387;DHT22;49473;50.772;8.768;2023-07-22T15:50:03;25.90;67.70
2387;DHT22;49473;50.772;8.768;2023-07-22T15:52:30;25.80;64.70